sensor_id;sensor_type;location;lat;lon;timestamp;pressure;altitude;pressure_sealevel;temperature;humidity
19210;BME280;9738;51.654;14.238;2023-05-23T00:00:45;100134.50;;;13.98;86.66
19210;BME280;9738;51.654;14.238;2023-05-23T00:03:13;100128.94;;;13.99;87.32
19210;BME280;9738;51.654;14.238;2023-05-23T00:05:38;100131.47;;;14.01;87.33
19210;BME280;9738;51.654;14.238;2023-05-23T00:08:04;100131.94;;;14.04;88.62
19210;BME280;9738;51.654;14.238;2023-05-23T00:10:30;100123.53;;;14.07;89.60
19210;BME280;9738;51.654;14.238;2023-05-23T00:12:56;100120.13;;;14.14;90.12
19210;BME280;9738;51.654;14.238;2023-05-23T00:15:22;100121.78;;;14.15;90.41
19210;BME280;9738;51.654;14.238;2023-05-23T00:17:49;100116.41;;;14.15;91.54
19210;BME280;9738;51.654;14.238;2023-05-23T00:20:15;100123.97;;;14.11;92.93
19210;BME280;9738;51.654;14.238;2023-05-23T00:22:41;100121.19;;;14.04;93.43
19210;BME280;9738;51.654;14.238;2023-05-23T00:25:08;100120.72;;;14.01;93.58
19210;BME280;9738;51.654;14.238;2023-05-23T00:27:35;100107.00;;;13.96;93.37
19210;BME280;9738;51.654;14.238;2023-05-23T00:30:01;100116.28;;;13.93;93.46
19210;BME280;9738;51.654;14.238;2023-05-23T00:32:28;100111.06;;;13.92;94.25
19210;BME280;9738;51.654;14.238;2023-05-23T00:34:53;100109.59;;;13.89;94.61
19210;BME280;9738;51.654;14.238;2023-05-23T00:37:21;100103.09;;;13.84;96.54
19210;BME280;9738;51.654;14.238;2023-05-23T00:39:50;100103.81;;;13.77;96.96
19210;BME280;9738;51.654;14.238;2023-05-23T00:42:16;100098.97;;;13.73;98.28
19210;BME280;9738;51.654;14.238;2023-05-23T00:44:41;100094.31;;;13.67;98.58
19210;BME280;9738;51.654;14.238;2023-05-23T00:47:08;100088.69;;;13.62;98.92
19210;BME280;9738;51.654;14.238;2023-05-23T00:49:34;100088.19;;;13.58;99.65
19210;BME280;9738;51.654;14.238;2023-05-23T00:52:00;100093.25;;;13.53;99.23
19210;BME280;9738;51.654;14.238;2023-05-23T00:54:28;100092.13;;;13.47;99.94
19210;BME280;9738;51.654;14.238;2023-05-23T00:56:56;100088.13;;;13.43;100.00
19210;BME280;9738;51.654;14.238;2023-05-23T00:59:25;100090.13;;;13.41;100.00
19210;BME280;9738;51.654;14.238;2023-05-23T01:01:55;100087.75;;;13.46;100.00
19210;BME280;9738;51.654;14.238;2023-05-23T01:04:21;100088.91;;;13.52;100.00
19210;BME280;9738;51.654;14.238;2023-05-23T01:06:54;100087.34;;;13.58;100.00
19210;BME280;9738;51.654;14.238;2023-05-23T01:09:22;100096.53;;;13.63;100.00
19210;BME280;9738;51.654;14.238;2023-05-23T01:12:10;100102.75;;;13.64;100.00
19210;BME280;9738;51.654;14.238;2023-05-23T01:15:12;100092.00;;;13.64;100.00
19210;BME280;9738;51.654;14.238;2023-05-23T01:20:33;100092.34;;;13.61;100.00
19210;BME280;9738;51.654;14.238;2023-05-23T01:28:45;100090.03;;;13.58;100.00
19210;BME280;9738;51.654;14.238;2023-05-23T01:31:13;100087.16;;;13.59;100.00
19210;BME280;9738;51.654;14.238;2023-05-23T01:33:41;100091.34;;;13.62;100.00
19210;BME280;9738;51.654;14.238;2023-05-23T01:36:12;100089.50;;;13.62;100.00
19210;BME280;9738;51.654;14.238;2023-05-23T01:38:38;100084.13;;;13.62;100.00
19210;BME280;9738;51.654;14.238;2023-05-23T01:41:04;100081.28;;;13.64;100.00
19210;BME280;9738;51.654;14.238;2023-05-23T01:43:30;100086.44;;;13.65;100.00
19210;BME280;9738;51.654;14.238;2023-05-23T01:45:57;100085.72;;;13.71;100.00
19210;BME280;9738;51.654;14.238;2023-05-23T01:48:24;100088.91;;;13.75;100.00
19210;BME280;9738;51.654;14.238;2023-05-23T01:50:52;100088.34;;;13.79;100.00
19210;BME280;9738;51.654;14.238;2023-05-23T01:53:22;100086.97;;;13.84;100.00
19210;BME280;9738;51.654;14.238;2023-05-23T01:55:48;100089.97;;;13.89;100.00
19210;BME280;9738;51.654;14.238;2023-05-23T01:58:14;100087.09;;;13.90;100.00
19210;BME280;9738;51.654;14.238;2023-05-23T02:00:40;100081.72;;;13.90;100.00
19210;BME280;9738;51.654;14.238;2023-05-23T02:03:06;100080.88;;;13.90;100.00
19210;BME280;9738;51.654;14.238;2023-05-23T02:05:32;100082.72;;;13.89;100.00
19210;BME280;9738;51.654;14.238;2023-05-23T02:07:58;100079.41;;;13.87;100.00
19210;BME280;9738;51.654;14.238;2023-05-23T02:10:24;100069.66;;;13.86;100.00
19210;BME280;9738;51.654;14.238;2023-05-23T02:12:49;100068.81;;;13.86;100.00
19210;BME280;9738;51.654;14.238;2023-05-23T02:15:16;100062.44;;;13.87;100.00
19210;BME280;9738;51.654;14.238;2023-05-23T02:17:41;100058.09;;;13.86;100.00
19210;BME280;9738;51.654;14.238;2023-05-23T02:20:08;100056.22;;;13.86;100.00
19210;BME280;9738;51.654;14.238;2023-05-23T02:22:35;100044.50;;;13.87;100.00
19210;BME280;9738;51.654;14.238;2023-05-23T02:25:01;100041.81;;;13.87;100.00
19210;BME280;9738;51.654;14.238;2023-05-23T02:27:26;100052.91;;;13.84;100.00
19210;BME280;9738;51.654;14.238;2023-05-23T02:29:53;100046.91;;;13.82;100.00
19210;BME280;9738;51.654;14.238;2023-05-23T02:32:19;100043.53;;;13.80;100.00
19210;BME280;9738;51.654;14.238;2023-05-23T02:34:45;100043.53;;;13.80;100.00
19210;BME280;9738;51.654;14.238;2023-05-23T02:37:15;100033.78;;;13.87;100.00
19210;BME280;9738;51.654;14.238;2023-05-23T02:39:42;100023.19;;;13.86;100.00
19210;BME280;9738;51.654;14.238;2023-05-23T02:42:08;100023.38;;;13.84;100.00
19210;BME280;9738;51.654;14.238;2023-05-23T02:44:34;100033.38;;;13.90;100.00
19210;BME280;9738;51.654;14.238;2023-05-23T02:47:00;100028.31;;;13.95;100.00
19210;BME280;9738;51.654;14.238;2023-05-23T02:49:25;100031.63;;;13.97;100.00
19210;BME280;9738;51.654;14.238;2023-05-23T02:51:52;100029.44;;;14.01;100.00
19210;BME280;9738;51.654;14.238;2023-05-23T02:54:18;100033.59;;;14.03;100.00
19210;BME280;9738;51.654;14.238;2023-05-23T02:56:44;100039.69;;;14.12;100.00
19210;BME280;9738;51.654;14.238;2023-05-23T02:59:11;100032.13;;;14.16;100.00
19210;BME280;9738;51.654;14.238;2023-05-23T03:01:37;100033.16;;;14.15;100.00
19210;BME280;9738;51.654;14.238;2023-05-23T03:04:02;100034.63;;;14.17;100.00
19210;BME280;9738;51.654;14.238;2023-05-23T03:06:29;100037.97;;;14.19;100.00
19210;BME280;9738;51.654;14.238;2023-05-23T03:08:56;100033.03;;;14.23;100.00
19210;BME280;9738;51.654;14.238;2023-05-23T03:11:22;100035.19;;;14.27;100.00
19210;BME280;9738;51.654;14.238;2023-05-23T03:13:49;100032.22;;;14.37;100.00
19210;BME280;9738;51.654;14.238;2023-05-23T03:16:14;100034.97;;;14.44;100.00
19210;BME280;9738;51.654;14.238;2023-05-23T03:18:40;100035.28;;;14.49;100.00
19210;BME280;9738;51.654;14.238;2023-05-23T03:21:07;100027.16;;;14.57;100.00
19210;BME280;9738;51.654;14.238;2023-05-23T03:23:34;100020.84;;;14.65;100.00
19210;BME280;9738;51.654;14.238;2023-05-23T03:26:01;100019.88;;;14.72;100.00
19210;BME280;9738;51.654;14.238;2023-05-23T03:28:32;100011.28;;;14.77;100.00
19210;BME280;9738;51.654;14.238;2023-05-23T03:30:58;100015.69;;;14.84;100.00
19210;BME280;9738;51.654;14.238;2023-05-23T03:33:23;100011.16;;;14.85;100.00
19210;BME280;9738;51.654;14.238;2023-05-23T03:35:50;100020.31;;;14.91;100.00
19210;BME280;9738;51.654;14.238;2023-05-23T03:38:15;100007.13;;;14.96;100.00
19210;BME280;9738;51.654;14.238;2023-05-23T03:40:41;100003.41;;;14.97;100.00
19210;BME280;9738;51.654;14.238;2023-05-23T03:43:07;100001.56;;;14.97;100.00
19210;BME280;9738;51.654;14.238;2023-05-23T03:45:33;100006.75;;;14.99;100.00
19210;BME280;9738;51.654;14.238;2023-05-23T03:47:59;100010.25;;;14.99;100.00
19210;BME280;9738;51.654;14.238;2023-05-23T03:50:26;100004.25;;;14.97;100.00
19210;BME280;9738;51.654;14.238;2023-05-23T03:52:52;99999.44;;;14.93;100.00
19210;BME280;9738;51.654;14.238;2023-05-23T03:55:21;99993.22;;;14.92;100.00
19210;BME280;9738;51.654;14.238;2023-05-23T03:57:50;100016.41;;;14.93;100.00
19210;BME280;9738;51.654;14.238;2023-05-23T04:00:18;100011.22;;;14.92;100.00
19210;BME280;9738;51.654;14.238;2023-05-23T04:02:45;100009.34;;;14.92;100.00
19210;BME280;9738;51.654;14.238;2023-05-23T04:05:12;100012.69;;;14.94;100.00
19210;BME280;9738;51.654;14.238;2023-05-23T04:07:37;100018.72;;;14.96;100.00
19210;BME280;9738;51.654;14.238;2023-05-23T04:10:04;100016.03;;;14.96;100.00
19210;BME280;9738;51.654;14.238;2023-05-23T04:12:30;100017.06;;;14.95;100.00
19210;BME280;9738;51.654;14.238;2023-05-23T04:14:56;100022.25;;;14.97;100.00
19210;BME280;9738;51.654;14.238;2023-05-23T04:17:24;100023.06;;;14.97;100.00
19210;BME280;9738;51.654;14.238;2023-05-23T04:19:51;100020.19;;;14.99;100.00
19210;BME280;9738;51.654;14.238;2023-05-23T04:22:16;100022.03;;;14.98;100.00
19210;BME280;9738;51.654;14.238;2023-05-23T04:24:42;100038.38;;;14.97;100.00
19210;BME280;9738;51.654;14.238;2023-05-23T04:27:09;100032.59;;;15.00;100.00
19210;BME280;9738;51.654;14.238;2023-05-23T04:29:35;100041.16;;;15.03;100.00
19210;BME280;9738;51.654;14.238;2023-05-23T04:32:01;100040.13;;;15.04;100.00
19210;BME280;9738;51.654;14.238;2023-05-23T04:34:27;100031.66;;;15.07;100.00
19210;BME280;9738;51.654;14.238;2023-05-23T04:36:55;100048.44;;;15.09;100.00
19210;BME280;9738;51.654;14.238;2023-05-23T04:39:21;100048.44;;;15.09;100.00
19210;BME280;9738;51.654;14.238;2023-05-23T04:41:48;100041.41;;;15.08;100.00
19210;BME280;9738;51.654;14.238;2023-05-23T04:44:14;100044.75;;;15.10;100.00
19210;BME280;9738;51.654;14.238;2023-05-23T04:46:40;100040.00;;;15.12;100.00
19210;BME280;9738;51.654;14.238;2023-05-23T04:49:10;100031.09;;;15.12;100.00
19210;BME280;9738;51.654;14.238;2023-05-23T04:51:37;100033.16;;;15.10;100.00
19210;BME280;9738;51.654;14.238;2023-05-23T04:54:03;100037.03;;;15.07;100.00
19210;BME280;9738;51.654;14.238;2023-05-23T04:56:30;100033.72;;;15.05;100.00
19210;BME280;9738;51.654;14.238;2023-05-23T04:58:56;100036.78;;;15.02;100.00
19210;BME280;9738;51.654;14.238;2023-05-23T05:01:21;100031.78;;;14.99;100.00
19210;BME280;9738;51.654;14.238;2023-05-23T05:03:49;100045.22;;;14.99;100.00
19210;BME280;9738;51.654;14.238;2023-05-23T05:06:15;100039.47;;;15.02;100.00
19210;BME280;9738;51.654;14.238;2023-05-23T05:08:42;100045.50;;;15.04;100.00
19210;BME280;9738;51.654;14.238;2023-05-23T05:11:08;100049.47;;;15.08;100.00
19210;BME280;9738;51.654;14.238;2023-05-23T05:13:35;100060.69;;;15.12;100.00
19210;BME280;9738;51.654;14.238;2023-05-23T05:16:01;100060.31;;;15.15;100.00
19210;BME280;9738;51.654;14.238;2023-05-23T05:18:29;100056.03;;;15.21;100.00
19210;BME280;9738;51.654;14.238;2023-05-23T05:20:55;100056.03;;;15.21;100.00
19210;BME280;9738;51.654;14.238;2023-05-23T05:23:24;100055.63;;;15.24;100.00
19210;BME280;9738;51.654;14.238;2023-05-23T05:25:51;100045.78;;;15.31;100.00
19210;BME280;9738;51.654;14.238;2023-05-23T05:28:17;100050.84;;;15.40;100.00
19210;BME280;9738;51.654;14.238;2023-05-23T05:30:42;100049.88;;;15.48;100.00
19210;BME280;9738;51.654;14.238;2023-05-23T05:33:11;100048.09;;;15.55;100.00
19210;BME280;9738;51.654;14.238;2023-05-23T05:35:36;100052.53;;;15.63;100.00
19210;BME280;9738;51.654;14.238;2023-05-23T05:38:05;100045.34;;;15.70;100.00
19210;BME280;9738;51.654;14.238;2023-05-23T05:40:33;100043.53;;;15.77;100.00
19210;BME280;9738;51.654;14.238;2023-05-23T05:42:59;100045.31;;;15.91;100.00
19210;BME280;9738;51.654;14.238;2023-05-23T05:45:25;100047.69;;;16.08;100.00
19210;BME280;9738;51.654;14.238;2023-05-23T05:47:51;100043.72;;;16.32;100.00
19210;BME280;9738;51.654;14.238;2023-05-23T05:50:17;100039.06;;;16.54;100.00
19210;BME280;9738;51.654;14.238;2023-05-23T05:52:44;100044.59;;;16.73;100.00
19210;BME280;9738;51.654;14.238;2023-05-23T05:55:11;100038.03;;;16.96;100.00
19210;BME280;9738;51.654;14.238;2023-05-23T05:57:37;100028.78;;;17.18;100.00
19210;BME280;9738;51.654;14.238;2023-05-23T06:00:08;100028.16;;;17.49;100.00
19210;BME280;9738;51.654;14.238;2023-05-23T06:02:39;100033.00;;;17.80;100.00
19210;BME280;9738;51.654;14.238;2023-05-23T06:05:05;100035.28;;;17.83;100.00
19210;BME280;9738;51.654;14.238;2023-05-23T06:07:33;100033.63;;;17.82;100.00
19210;BME280;9738;51.654;14.238;2023-05-23T06:09:59;100041.09;;;17.80;100.00
19210;BME280;9738;51.654;14.238;2023-05-23T06:12:25;100043.19;;;17.72;100.00
19210;BME280;9738;51.654;14.238;2023-05-23T06:14:51;100035.25;;;17.70;100.00
19210;BME280;9738;51.654;14.238;2023-05-23T06:17:17;100039.88;;;17.76;100.00
19210;BME280;9738;51.654;14.238;2023-05-23T06:19:43;100036.94;;;17.85;100.00
19210;BME280;9738;51.654;14.238;2023-05-23T06:22:08;100038.00;;;17.90;100.00
19210;BME280;9738;51.654;14.238;2023-05-23T06:24:35;100039.22;;;17.88;100.00
19210;BME280;9738;51.654;14.238;2023-05-23T06:27:00;100039.44;;;17.86;100.00
19210;BME280;9738;51.654;14.238;2023-05-23T06:29:26;100046.50;;;17.94;100.00
19210;BME280;9738;51.654;14.238;2023-05-23T06:31:52;100045.66;;;18.00;100.00
19210;BME280;9738;51.654;14.238;2023-05-23T06:34:18;100050.66;;;18.03;100.00
19210;BME280;9738;51.654;14.238;2023-05-23T06:36:44;100047.13;;;18.09;100.00
19210;BME280;9738;51.654;14.238;2023-05-23T06:39:12;100050.03;;;18.14;100.00
19210;BME280;9738;51.654;14.238;2023-05-23T06:41:38;100045.25;;;18.09;100.00
19210;BME280;9738;51.654;14.238;2023-05-23T06:44:03;100041.09;;;18.14;100.00
19210;BME280;9738;51.654;14.238;2023-05-23T06:46:30;100042.31;;;18.18;100.00
19210;BME280;9738;51.654;14.238;2023-05-23T06:48:56;100041.09;;;18.20;100.00
19210;BME280;9738;51.654;14.238;2023-05-23T06:51:22;100045.22;;;18.29;100.00
19210;BME280;9738;51.654;14.238;2023-05-23T06:53:48;100047.28;;;18.41;100.00
19210;BME280;9738;51.654;14.238;2023-05-23T06:56:14;100037.03;;;18.56;100.00
19210;BME280;9738;51.654;14.238;2023-05-23T06:58:40;100037.44;;;18.73;100.00
19210;BME280;9738;51.654;14.238;2023-05-23T07:01:06;100047.16;;;18.80;100.00
19210;BME280;9738;51.654;14.238;2023-05-23T07:03:32;100036.88;;;18.96;100.00
19210;BME280;9738;51.654;14.238;2023-05-23T07:05:58;100049.75;;;19.07;100.00
19210;BME280;9738;51.654;14.238;2023-05-23T07:08:24;100050.38;;;19.09;100.00
19210;BME280;9738;51.654;14.238;2023-05-23T07:10:50;100050.16;;;19.10;100.00
19210;BME280;9738;51.654;14.238;2023-05-23T07:13:16;100041.13;;;19.23;100.00
19210;BME280;9738;51.654;14.238;2023-05-23T07:15:42;100043.53;;;19.38;100.00
19210;BME280;9738;51.654;14.238;2023-05-23T07:18:08;100044.34;;;19.38;100.00
19210;BME280;9738;51.654;14.238;2023-05-23T07:20:33;100041.22;;;19.41;100.00
19210;BME280;9738;51.654;14.238;2023-05-23T07:23:00;100044.59;;;19.37;100.00
19210;BME280;9738;51.654;14.238;2023-05-23T07:25:25;100042.28;;;19.40;100.00
19210;BME280;9738;51.654;14.238;2023-05-23T07:27:52;100040.59;;;19.71;100.00
19210;BME280;9738;51.654;14.238;2023-05-23T07:30:20;100042.72;;;19.94;100.00
19210;BME280;9738;51.654;14.238;2023-05-23T07:32:47;100049.19;;;20.18;100.00
19210;BME280;9738;51.654;14.238;2023-05-23T07:35:14;100039.81;;;20.57;98.99
19210;BME280;9738;51.654;14.238;2023-05-23T07:37:40;100046.22;;;20.81;93.41
19210;BME280;9738;51.654;14.238;2023-05-23T07:40:06;100048.53;;;20.96;93.26
19210;BME280;9738;51.654;14.238;2023-05-23T07:42:35;100047.91;;;21.24;94.06
19210;BME280;9738;51.654;14.238;2023-05-23T07:45:02;100041.53;;;21.48;89.87
19210;BME280;9738;51.654;14.238;2023-05-23T07:47:28;100038.28;;;21.70;87.39
19210;BME280;9738;51.654;14.238;2023-05-23T07:49:54;100042.56;;;21.77;86.06
19210;BME280;9738;51.654;14.238;2023-05-23T07:52:20;100044.78;;;21.80;84.00
19210;BME280;9738;51.654;14.238;2023-05-23T07:54:46;100049.97;;;21.58;83.36
19210;BME280;9738;51.654;14.238;2023-05-23T07:57:11;100054.69;;;21.51;84.25
19210;BME280;9738;51.654;14.238;2023-05-23T07:59:38;100055.91;;;21.37;86.37
19210;BME280;9738;51.654;14.238;2023-05-23T08:02:04;100045.91;;;21.38;85.63
19210;BME280;9738;51.654;14.238;2023-05-23T08:04:30;100041.56;;;21.60;86.18
19210;BME280;9738;51.654;14.238;2023-05-23T08:06:57;100045.13;;;21.72;83.53
19210;BME280;9738;51.654;14.238;2023-05-23T08:09:24;100052.72;;;21.70;81.44
19210;BME280;9738;51.654;14.238;2023-05-23T08:11:50;100052.25;;;21.85;83.25
19210;BME280;9738;51.654;14.238;2023-05-23T08:14:17;100054.59;;;21.81;79.81
19210;BME280;9738;51.654;14.238;2023-05-23T08:16:42;100057.34;;;21.93;78.25
19210;BME280;9738;51.654;14.238;2023-05-23T08:19:08;100055.69;;;22.04;79.65
19210;BME280;9738;51.654;14.238;2023-05-23T08:21:35;100055.00;;;22.08;79.54
19210;BME280;9738;51.654;14.238;2023-05-23T08:24:01;100060.44;;;22.08;77.60
19210;BME280;9738;51.654;14.238;2023-05-23T08:26:26;100063.38;;;22.07;78.81
19210;BME280;9738;51.654;14.238;2023-05-23T08:29:00;100072.25;;;22.02;78.58
19210;BME280;9738;51.654;14.238;2023-05-23T08:31:30;100072.25;;;22.02;78.04
19210;BME280;9738;51.654;14.238;2023-05-23T08:33:57;100079.59;;;22.02;76.67
19210;BME280;9738;51.654;14.238;2023-05-23T08:36:24;100079.41;;;21.73;72.64
19210;BME280;9738;51.654;14.238;2023-05-23T08:38:50;100081.03;;;21.51;69.25
19210;BME280;9738;51.654;14.238;2023-05-23T08:41:21;100088.00;;;21.28;66.13
19210;BME280;9738;51.654;14.238;2023-05-23T08:43:48;100090.28;;;21.13;65.73
19210;BME280;9738;51.654;14.238;2023-05-23T08:46:14;100089.22;;;21.14;65.64
19210;BME280;9738;51.654;14.238;2023-05-23T08:48:41;100084.97;;;21.18;68.07
19210;BME280;9738;51.654;14.238;2023-05-23T08:51:12;100081.13;;;21.26;68.03
19210;BME280;9738;51.654;14.238;2023-05-23T08:53:41;100078.72;;;21.36;66.07
19210;BME280;9738;51.654;14.238;2023-05-23T08:56:09;100077.34;;;21.45;64.51
19210;BME280;9738;51.654;14.238;2023-05-23T08:58:36;100093.31;;;21.53;64.06
19210;BME280;9738;51.654;14.238;2023-05-23T09:01:03;100090.97;;;21.69;63.41
19210;BME280;9738;51.654;14.238;2023-05-23T09:03:29;100081.91;;;21.86;62.72
19210;BME280;9738;51.654;14.238;2023-05-23T09:05:56;100082.22;;;22.20;63.72
19210;BME280;9738;51.654;14.238;2023-05-23T09:08:22;100093.22;;;22.37;62.85
19210;BME280;9738;51.654;14.238;2023-05-23T09:10:50;100079.84;;;22.35;59.35
19210;BME280;9738;51.654;14.238;2023-05-23T09:13:16;100077.47;;;22.62;60.01
19210;BME280;9738;51.654;14.238;2023-05-23T09:16:04;100083.47;;;22.88;61.27
19210;BME280;9738;51.654;14.238;2023-05-23T09:18:36;100084.16;;;22.95;60.75
19210;BME280;9738;51.654;14.238;2023-05-23T09:21:03;100086.94;;;23.24;61.11
19210;BME280;9738;51.654;14.238;2023-05-23T09:23:33;100089.25;;;23.32;60.36
19210;BME280;9738;51.654;14.238;2023-05-23T09:26:12;100091.31;;;23.25;58.27
19210;BME280;9738;51.654;14.238;2023-05-23T09:28:39;100093.81;;;23.14;60.16
19210;BME280;9738;51.654;14.238;2023-05-23T09:31:06;100094.31;;;23.11;59.61
19210;BME280;9738;51.654;14.238;2023-05-23T09:33:45;100097.94;;;23.29;57.81
19210;BME280;9738;51.654;14.238;2023-05-23T09:36:13;100094.31;;;23.40;58.63
19210;BME280;9738;51.654;14.238;2023-05-23T09:38:43;100088.97;;;23.73;56.90
19210;BME280;9738;51.654;14.238;2023-05-23T09:41:10;100089.94;;;23.84;55.21
19210;BME280;9738;51.654;14.238;2023-05-23T09:43:38;100086.97;;;23.69;53.75
19210;BME280;9738;51.654;14.238;2023-05-23T09:46:11;100095.31;;;23.62;54.43
19210;BME280;9738;51.654;14.238;2023-05-23T09:48:37;100092.28;;;23.76;55.71
19210;BME280;9738;51.654;14.238;2023-05-23T09:51:04;100090.03;;;23.89;53.86
19210;BME280;9738;51.654;14.238;2023-05-23T09:53:31;100085.16;;;23.91;51.53
19210;BME280;9738;51.654;14.238;2023-05-23T09:55:58;100088.16;;;24.07;53.29
19210;BME280;9738;51.654;14.238;2023-05-23T09:58:26;100093.53;;;24.18;52.55
19210;BME280;9738;51.654;14.238;2023-05-23T10:00:52;100096.06;;;24.08;51.58
19210;BME280;9738;51.654;14.238;2023-05-23T10:03:33;100088.47;;;24.10;50.45
19210;BME280;9738;51.654;14.238;2023-05-23T10:06:05;100087.47;;;23.83;49.52
19210;BME280;9738;51.654;14.238;2023-05-23T10:08:37;100092.59;;;23.62;51.86
19210;BME280;9738;51.654;14.238;2023-05-23T10:13:44;100090.63;;;23.75;51.87
19210;BME280;9738;51.654;14.238;2023-05-23T10:16:20;100092.84;;;23.94;49.40
19210;BME280;9738;51.654;14.238;2023-05-23T10:18:53;100097.00;;;24.31;51.41
19210;BME280;9738;51.654;14.238;2023-05-23T10:21:28;100085.81;;;24.15;47.85
19210;BME280;9738;51.654;14.238;2023-05-23T10:23:58;100096.22;;;23.85;49.51
19210;BME280;9738;51.654;14.238;2023-05-23T10:26:26;100090.72;;;23.51;49.93
19210;BME280;9738;51.654;14.238;2023-05-23T10:28:52;100093.00;;;23.42;52.15
19210;BME280;9738;51.654;14.238;2023-05-23T10:31:19;100100.72;;;23.34;52.59
19210;BME280;9738;51.654;14.238;2023-05-23T10:33:54;100092.59;;;23.22;54.77
19210;BME280;9738;51.654;14.238;2023-05-23T10:36:35;100097.94;;;23.29;56.52
19210;BME280;9738;51.654;14.238;2023-05-23T10:39:30;100090.03;;;23.44;53.57
19210;BME280;9738;51.654;14.238;2023-05-23T10:42:02;100088.47;;;23.48;53.51
19210;BME280;9738;51.654;14.238;2023-05-23T10:44:29;100089.53;;;23.76;53.28
19210;BME280;9738;51.654;14.238;2023-05-23T10:46:57;100084.50;;;24.01;51.52
19210;BME280;9738;51.654;14.238;2023-05-23T10:49:50;100084.16;;;23.97;51.72
19210;BME280;9738;51.654;14.238;2023-05-23T10:52:16;100089.03;;;23.79;52.36
19210;BME280;9738;51.654;14.238;2023-05-23T10:54:53;100082.91;;;23.71;55.37
19210;BME280;9738;51.654;14.238;2023-05-23T10:57:25;100079.38;;;23.88;55.58
19210;BME280;9738;51.654;14.238;2023-05-23T10:59:54;100083.59;;;24.12;56.23
19210;BME280;9738;51.654;14.238;2023-05-23T11:02:27;100079.88;;;24.18;54.04
19210;BME280;9738;51.654;14.238;2023-05-23T11:05:23;100083.31;;;24.47;52.97
19210;BME280;9738;51.654;14.238;2023-05-23T11:08:11;100083.97;;;24.54;53.90
19210;BME280;9738;51.654;14.238;2023-05-23T11:11:00;100083.78;;;24.61;54.14
19210;BME280;9738;51.654;14.238;2023-05-23T11:13:57;100088.88;;;24.36;55.44
19210;BME280;9738;51.654;14.238;2023-05-23T11:16:39;100091.28;;;24.32;57.25
19210;BME280;9738;51.654;14.238;2023-05-23T11:22:07;100089.66;;;24.70;57.58
19210;BME280;9738;51.654;14.238;2023-05-23T11:24:50;100093.06;;;24.60;56.39
19210;BME280;9738;51.654;14.238;2023-05-23T11:27:37;100090.88;;;24.40;56.17
19210;BME280;9738;51.654;14.238;2023-05-23T11:30:06;100099.97;;;24.12;57.92
19210;BME280;9738;51.654;14.238;2023-05-23T11:32:33;100113.69;;;23.55;61.25
19210;BME280;9738;51.654;14.238;2023-05-23T11:35:04;100107.81;;;23.06;65.33
19210;BME280;9738;51.654;14.238;2023-05-23T11:37:31;100115.44;;;22.69;67.68
19210;BME280;9738;51.654;14.238;2023-05-23T11:39:58;100117.72;;;22.49;70.06
19210;BME280;9738;51.654;14.238;2023-05-23T11:42:24;100123.16;;;22.25;70.97
19210;BME280;9738;51.654;14.238;2023-05-23T11:44:51;100119.19;;;21.98;72.12
19210;BME280;9738;51.654;14.238;2023-05-23T11:47:17;100125.19;;;21.76;73.85
19210;BME280;9738;51.654;14.238;2023-05-23T11:49:45;100125.31;;;21.51;73.12
19210;BME280;9738;51.654;14.238;2023-05-23T11:52:11;100135.84;;;21.29;75.13
19210;BME280;9738;51.654;14.238;2023-05-23T11:54:41;100133.84;;;21.18;75.22
19210;BME280;9738;51.654;14.238;2023-05-23T11:57:09;100132.44;;;21.16;78.00
19210;BME280;9738;51.654;14.238;2023-05-23T11:59:35;100137.78;;;21.22;78.70
19210;BME280;9738;51.654;14.238;2023-05-23T12:02:04;100134.00;;;21.23;78.16
19210;BME280;9738;51.654;14.238;2023-05-23T12:04:30;100133.03;;;21.18;79.40
19210;BME280;9738;51.654;14.238;2023-05-23T12:06:56;100134.19;;;21.28;80.17
19210;BME280;9738;51.654;14.238;2023-05-23T12:09:22;100131.38;;;21.35;80.55
19210;BME280;9738;51.654;14.238;2023-05-23T12:11:48;100126.69;;;21.42;78.95
19210;BME280;9738;51.654;14.238;2023-05-23T12:14:15;100127.59;;;21.36;79.08
19210;BME280;9738;51.654;14.238;2023-05-23T12:16:45;100130.63;;;21.28;79.44
19210;BME280;9738;51.654;14.238;2023-05-23T12:19:12;100140.16;;;21.00;80.28
19210;BME280;9738;51.654;14.238;2023-05-23T12:21:42;100139.03;;;20.90;81.21
19210;BME280;9738;51.654;14.238;2023-05-23T12:26:47;100146.03;;;20.79;83.46
19210;BME280;9738;51.654;14.238;2023-05-23T12:29:14;100150.69;;;20.72;83.43
19210;BME280;9738;51.654;14.238;2023-05-23T12:31:41;100144.81;;;20.75;83.38
19210;BME280;9738;51.654;14.238;2023-05-23T12:34:06;100141.41;;;20.79;83.22
19210;BME280;9738;51.654;14.238;2023-05-23T12:36:33;100145.66;;;20.94;82.39
19210;BME280;9738;51.654;14.238;2023-05-23T12:39:03;100136.91;;;21.10;83.12
19210;BME280;9738;51.654;14.238;2023-05-23T12:41:31;100133.19;;;21.23;81.25
19210;BME280;9738;51.654;14.238;2023-05-23T12:43:58;100140.22;;;21.30;79.80
19210;BME280;9738;51.654;14.238;2023-05-23T12:46:25;100136.91;;;21.28;78.67
19210;BME280;9738;51.654;14.238;2023-05-23T12:48:52;100131.25;;;21.30;79.04
19210;BME280;9738;51.654;14.238;2023-05-23T12:51:19;100135.09;;;21.41;76.36
19210;BME280;9738;51.654;14.238;2023-05-23T12:53:46;100138.38;;;21.43;74.48
19210;BME280;9738;51.654;14.238;2023-05-23T12:56:11;100136.19;;;21.51;73.31
19210;BME280;9738;51.654;14.238;2023-05-23T12:58:38;100133.59;;;21.56;74.19
19210;BME280;9738;51.654;14.238;2023-05-23T13:01:04;100133.34;;;21.46;72.73
19210;BME280;9738;51.654;14.238;2023-05-23T13:03:30;100138.00;;;21.57;74.99
19210;BME280;9738;51.654;14.238;2023-05-23T13:05:57;100139.66;;;21.58;72.92